Time;durP1;ratioP1;P1;durP2;ratioP2;P2;SDS_P1;SDS_P2;PMS_P1;PMS_P2;Temp;Humidity;BMP_temperature;BMP_pressure;BME280_temperature;BME280_humidity;BME280_pressure;Samples;Min_cycle;Max_cycle;Signal;HPM_P1;HPM_P2
2023/01/04 00:02:23;;;;;;;2.73;1.33;;;9.30;99.90;;;;;;5000228;28;20220;-61
2023/01/04 00:04:50;;;;;;;3.57;1.77;;;9.30;99.90;;;;;;5008727;28;20230;-61
2023/01/04 00:07:17;;;;;;;3.57;1.53;;;9.30;99.90;;;;;;5009391;28;20203;-60
2023/01/04 00:09:44;;;;;;;2.67;1.67;;;9.30;99.90;;;;;;4999239;28;20238;-61
2023/01/04 00:12:11;;;;;;;1.97;1.40;;;9.20;99.90;;;;;;5000489;28;20206;-61
2023/01/04 00:14:38;;;;;;;4.77;1.60;;;9.20;99.90;;;;;;5018511;28;20217;-61
2023/01/04 00:17:06;;;;;;;3.97;1.27;;;9.20;99.90;;;;;;5008543;28;20208;-61
2023/01/04 00:19:34;;;;;;;2.30;1.40;;;9.20;99.90;;;;;;4997553;28;20199;-61
2023/01/04 00:22:01;;;;;;;1.80;1.47;;;9.20;99.90;;;;;;5001321;28;20207;-61
2023/01/04 00:24:28;;;;;;;3.70;1.47;;;9.20;99.90;;;;;;5009577;28;20194;-60
2023/01/04 00:26:56;;;;;;;2.60;1.50;;;9.20;99.90;;;;;;5014066;28;20216;-60
2023/01/04 00:29:23;;;;;;;1.50;1.30;;;9.20;99.90;;;;;;5001679;28;20553;-60
2023/01/04 00:31:50;;;;;;;4.70;1.70;;;9.20;99.90;;;;;;5008634;28;20562;-60
2023/01/04 00:34:18;;;;;;;2.60;1.57;;;9.20;99.90;;;;;;5008562;28;20222;-61
2023/01/04 00:36:47;;;;;;;3.60;1.50;;;9.20;99.90;;;;;;5005016;28;20297;-61
2023/01/04 00:39:16;;;;;;;3.03;1.70;;;9.20;99.90;;;;;;5016464;28;20200;-61
2023/01/04 00:41:45;;;;;;;2.13;1.50;;;9.40;99.90;;;;;;5009245;28;20229;-60
2023/01/04 00:44:13;;;;;;;5.87;2.03;;;9.00;99.90;;;;;;5008278;28;20191;-59
2023/01/04 00:46:41;;;;;;;2.30;1.73;;;9.10;99.90;;;;;;5008662;28;20198;-60
2023/01/04 00:49:10;;;;;;;2.23;1.50;;;9.30;99.90;;;;;;5008209;28;20332;-60
2023/01/04 00:51:38;;;;;;;2.80;1.50;;;9.20;99.90;;;;;;5008518;28;20547;-61
2023/01/04 00:54:12;;;;;;;4.07;1.70;;;9.00;99.90;;;;;;5008754;28;20206;-61
2023/01/04 00:56:39;;;;;;;2.77;1.87;;;9.00;99.90;;;;;;5009399;28;20217;-61
2023/01/04 00:59:06;;;;;;;2.60;1.53;;;9.00;99.90;;;;;;5010552;28;20664;-61
2023/01/04 01:01:34;;;;;;;1.70;1.53;;;9.10;99.90;;;;;;5008506;28;20614;-61
2023/01/04 01:04:03;;;;;;;2.47;1.50;;;8.90;99.90;;;;;;5008114;28;20246;-61
2023/01/04 01:06:32;;;;;;;3.20;1.77;;;8.90;99.90;;;;;;5008802;28;20253;-61
2023/01/04 01:09:00;;;;;;;6.97;2.23;;;8.90;99.90;;;;;;5007915;28;20212;-61
2023/01/04 01:11:30;;;;;;;4.43;1.73;;;8.80;99.90;;;;;;5008948;28;20234;-60
2023/01/04 01:13:57;;;;;;;5.57;2.40;;;8.80;99.90;;;;;;5007916;28;20225;-60
2023/01/04 01:16:26;;;;;;;4.67;2.03;;;8.80;99.90;;;;;;5008321;28;20200;-60
2023/01/04 01:18:53;;;;;;;2.60;1.63;;;8.80;99.90;;;;;;5008699;28;20192;-60
2023/01/04 01:21:24;;;;;;;2.40;1.50;;;8.70;99.90;;;;;;5010907;28;20199;-60
2023/01/04 01:23:51;;;;;;;2.90;1.67;;;;;;;;;;5016741;28;20202;-60
2023/01/04 01:26:21;;;;;;;4.60;1.60;;;8.70;99.90;;;;;;5010345;28;20570;-60
2023/01/04 01:28:49;;;;;;;3.27;1.70;;;8.70;99.90;;;;;;5011144;28;20800;-61
2023/01/04 01:31:19;;;;;;;2.00;1.60;;;8.70;99.90;;;;;;5011110;28;20194;-60
2023/01/04 01:33:48;;;;;;;3.10;2.00;;;8.70;99.90;;;;;;5009862;28;20228;-60
2023/01/04 01:36:16;;;;;;;2.07;1.80;;;8.70;99.90;;;;;;5019383;28;20567;-60
2023/01/04 01:38:44;;;;;;;5.13;2.10;;;8.70;99.90;;;;;;5014094;28;20545;-60
2023/01/04 01:41:18;;;;;;;4.13;2.53;;;8.70;99.90;;;;;;5010708;28;20604;-59
2023/01/04 01:43:53;;;;;;;2.90;2.03;;;8.40;99.90;;;;;;5011987;28;20198;-60
2023/01/04 01:46:24;;;;;;;4.03;2.40;;;8.60;99.90;;;;;;5008520;28;20659;-62
2023/01/04 01:48:55;;;;;;;4.13;2.70;;;8.10;99.90;;;;;;5012318;28;20213;-60
2023/01/04 01:51:23;;;;;;;4.17;2.30;;;8.90;99.90;;;;;;5013415;28;20221;-61
2023/01/04 01:53:57;;;;;;;4.93;2.27;;;8.60;99.90;;;;;;5011590;28;20293;-60
2023/01/04 01:56:29;;;;;;;2.70;1.97;;;8.60;99.90;;;;;;5010917;28;20252;-61
2023/01/04 01:58:59;;;;;;;3.57;2.07;;;8.50;99.90;;;;;;5010138;28;20192;-61
2023/01/04 02:01:27;;;;;;;3.07;1.80;;;8.60;99.90;;;;;;5011592;28;20208;-62
2023/01/04 02:03:55;;;;;;;5.47;1.80;;;8.60;99.90;;;;;;5011028;28;20238;-60
2023/01/04 02:06:29;;;;;;;2.00;1.80;;;8.50;99.90;;;;;;5012015;28;20201;-60
2023/01/04 02:08:56;;;;;;;3.37;1.80;;;8.50;99.90;;;;;;5009650;28;20199;-62
2023/01/04 02:11:23;;;;;;;3.87;1.90;;;8.50;99.90;;;;;;5011478;28;20193;-60
2023/01/04 02:16:56;;;;;;;3.70;1.60;;;8.30;99.90;;;;;;5010289;28;20253;-61
2023/01/04 02:20:03;;;;;;;2.20;1.80;;;8.40;99.90;;;;;;5014658;28;20187;-61
2023/01/04 02:23:04;;;;;;;1.77;1.60;;;8.50;99.90;;;;;;4960264;28;20207;-61
2023/01/04 02:26:02;;;;;;;3.47;1.40;;;8.40;99.90;;;;;;5010222;28;20604;-62
2023/01/04 02:28:48;;;;;;;2.17;1.70;;;8.30;99.90;;;;;;5025391;28;20299;-61
2023/01/04 02:31:30;;;;;;;2.20;2.00;;;8.30;99.90;;;;;;5022925;28;20230;-61
2023/01/04 02:34:07;;;;;;;2.67;1.63;;;8.30;99.90;;;;;;5013295;28;20205;-62
2023/01/04 02:36:43;;;;;;;2.73;1.80;;;8.20;99.90;;;;;;5021546;28;20182;-61
2023/01/04 02:39:23;;;;;;;2.37;1.70;;;8.20;99.90;;;;;;5009181;28;20202;-60
2023/01/04 02:41:56;;;;;;;2.00;1.53;;;8.20;99.90;;;;;;5011773;28;20541;-61
2023/01/04 02:47:17;;;;;;;3.27;1.60;;;8.20;99.90;;;;;;5009400;28;20666;-61
2023/01/04 02:52:28;;;;;;;5.60;1.53;;;8.30;99.90;;;;;;5008538;28;20278;-61
2023/01/04 02:54:58;;;;;;;1.70;1.50;;;8.30;99.90;;;;;;5008785;28;20220;-60
2023/01/04 02:57:35;;;;;;;3.47;1.80;;;8.20;99.90;;;;;;5009680;28;20195;-62
2023/01/04 03:00:28;;;;;;;3.97;1.70;;;8.20;99.90;;;;;;5009676;28;20206;-60
2023/01/04 03:06:15;;;;;;;2.33;1.90;;;8.20;99.90;;;;;;5008458;28;20543;-61
2023/01/04 03:08:56;;;;;;;2.47;1.70;;;8.10;99.90;;;;;;5015731;28;20286;-60
2023/01/04 03:14:18;;;;;;;5.50;2.00;;;8.10;99.90;;;;;;5007595;28;20207;-60
2023/01/04 03:16:47;;;;;;;2.53;2.03;;;8.00;99.90;;;;;;5009556;28;20199;-60
2023/01/04 03:19:50;;;;;;;2.43;1.60;;;8.10;99.90;;;;;;5009631;28;20228;-60
2023/01/04 03:36:14;;;;;;;2.03;1.83;;;8.00;99.90;;;;;;5016793;28;20194;-61
2023/01/04 03:50:13;;;;;;;4.37;1.67;;;7.80;99.90;;;;;;5009605;28;20214;-61
2023/01/04 03:52:45;;;;;;;1.53;1.43;;;7.90;99.90;;;;;;5010539;28;20199;-61
2023/01/04 03:55:13;;;;;;;3.00;2.07;;;7.80;99.90;;;;;;5009182;28;20270;-61
2023/01/04 03:57:41;;;;;;;4.83;3.10;;;7.80;99.90;;;;;;5007092;28;20199;-61
2023/01/04 04:00:12;;;;;;;6.83;3.80;;;7.70;99.90;;;;;;5016396;28;20196;-60
2023/01/04 04:02:40;;;;;;;10.63;4.47;;;7.70;99.90;;;;;;5006878;28;20207;-60
2023/01/04 04:10:42;;;;;;;8.13;4.07;;;7.80;99.90;;;;;;5008959;28;20226;-61
2023/01/04 04:13:09;;;;;;;14.13;5.87;;;;;;;;;;5013787;28;20199;-61
2023/01/04 04:15:37;;;;;;;14.23;6.27;;;;;;;;;;5007234;28;20226;-61
2023/01/04 04:18:04;;;;;;;10.40;4.87;;;7.60;99.90;;;;;;5006934;28;20206;-61
2023/01/04 04:20:31;;;;;;;9.80;5.20;;;;;;;;;;5007525;28;20206;-61
2023/01/04 04:23:00;;;;;;;6.50;3.90;;;7.60;99.90;;;;;;5024117;28;20212;-61
2023/01/04 04:25:27;;;;;;;5.67;3.40;;;7.60;99.90;;;;;;5009176;28;20184;-61
2023/01/04 04:27:54;;;;;;;6.80;3.13;;;7.40;99.90;;;;;;5014847;28;20195;-64
2023/01/04 04:30:21;;;;;;;6.70;2.80;;;7.80;99.90;;;;;;5007815;28;20674;-60
2023/01/04 04:32:48;;;;;;;7.63;3.23;;;7.40;99.90;;;;;;5008039;28;20348;-61
2023/01/04 04:35:16;;;;;;;7.40;4.13;;;7.50;99.90;;;;;;5009321;28;20219;-60
2023/01/04 04:37:43;;;;;;;7.70;3.80;;;7.50;99.90;;;;;;5005941;28;20205;-60
2023/01/04 04:41:37;;;;;;;7.13;3.73;;;7.50;99.90;;;;;;5008892;28;20199;-60
2023/01/04 04:43:06;;;;;;;8.07;4.23;;;7.80;99.90;;;;;;5020692;28;20199;-60
2023/01/04 04:45:33;;;;;;;8.63;3.70;;;7.30;99.90;;;;;;5001880;28;20184;-61
2023/01/04 04:48:00;;;;;;;6.40;3.10;;;7.30;99.90;;;;;;5008590;28;20214;-62
2023/01/04 04:50:28;;;;;;;5.17;2.80;;;7.30;99.90;;;;;;5009543;28;20198;-61
2023/01/04 04:52:55;;;;;;;5.50;2.87;;;;;;;;;;5000742;28;20195;-61
2023/01/04 04:55:24;;;;;;;4.30;2.80;;;7.30;99.90;;;;;;5011383;28;20211;-60
2023/01/04 04:57:51;;;;;;;3.67;2.57;;;;;;;;;;5011197;28;20203;-61
2023/01/04 05:00:19;;;;;;;6.63;3.40;;;7.40;99.90;;;;;;5008869;28;20209;-61
2023/01/04 05:02:46;;;;;;;5.90;3.57;;;7.40;99.90;;;;;;5003941;28;20195;-60
2023/01/04 05:05:13;;;;;;;3.73;2.77;;;7.20;99.90;;;;;;5011358;28;20188;-60
2023/01/04 05:07:40;;;;;;;5.03;3.40;;;7.30;99.90;;;;;;5013520;28;20207;-61
2023/01/04 05:10:08;;;;;;;5.23;2.93;;;7.10;99.90;;;;;;5004650;28;20219;-60
2023/01/04 05:15:21;;;;;;;4.30;3.33;;;7.10;99.90;;;;;;5011017;28;20207;-60
2023/01/04 05:17:48;;;;;;;5.93;3.73;;;7.00;99.90;;;;;;5003019;28;20202;-61
2023/01/04 05:20:15;;;;;;;4.27;3.30;;;7.00;99.90;;;;;;5011498;28;20222;-60
2023/01/04 05:22:42;;;;;;;5.33;3.50;;;6.80;99.90;;;;;;5010542;28;20651;-60
2023/01/04 05:25:11;;;;;;;3.63;3.20;;;;;;;;;;5007340;28;20281;-61
2023/01/04 05:27:39;;;;;;;4.20;3.30;;;6.90;99.90;;;;;;5016634;28;20256;-61
2023/01/04 05:32:52;;;;;;;4.07;3.20;;;6.90;99.90;;;;;;5009287;28;20254;-60
2023/01/04 05:35:19;;;;;;;5.13;3.60;;;6.90;99.90;;;;;;5011968;28;20244;-61
2023/01/04 05:37:46;;;;;;;5.03;3.10;;;7.00;99.90;;;;;;4999575;28;20283;-60
2023/01/04 05:40:13;;;;;;;5.27;3.27;;;7.00;99.90;;;;;;5011362;28;20595;-60
2023/01/04 05:42:42;;;;;;;6.90;3.60;;;7.00;99.90;;;;;;5012582;28;20199;-60
2023/01/04 05:45:10;;;;;;;5.90;3.33;;;7.00;99.90;;;;;;5006393;28;21312;-60
2023/01/04 05:47:37;;;;;;;7.20;3.93;;;6.90;99.90;;;;;;5005862;28;20564;-60
2023/01/04 05:50:05;;;;;;;9.47;4.23;;;6.90;99.90;;;;;;5011627;28;20195;-61
2023/01/04 05:52:32;;;;;;;7.10;3.53;;;6.80;99.90;;;;;;5010254;28;20210;-60
2023/01/04 05:54:59;;;;;;;5.37;3.70;;;6.80;99.90;;;;;;5009368;28;20215;-60
2023/01/04 05:57:26;;;;;;;10.13;5.37;;;6.80;99.90;;;;;;5012117;28;20638;-62
2023/01/04 05:59:55;;;;;;;8.90;5.30;;;6.80;99.90;;;;;;5009765;28;20732;-61
2023/01/04 06:02:24;;;;;;;12.23;6.83;;;6.70;99.90;;;;;;5010391;28;20344;-61
2023/01/04 06:04:51;;;;;;;14.53;7.37;;;6.30;99.90;;;;;;5011184;28;20230;-60
2023/01/04 06:07:19;;;;;;;16.50;8.27;;;5.70;99.90;;;;;;5012033;28;20200;-61
2023/01/04 06:09:46;;;;;;;15.10;8.43;;;6.40;99.90;;;;;;5010812;28;20208;-61
2023/01/04 06:12:14;;;;;;;18.00;8.70;;;;;;;;;;5009663;28;20205;-61
2023/01/04 06:14:41;;;;;;;17.60;8.50;;;6.10;99.90;;;;;;5009782;28;20215;-61
2023/01/04 06:17:10;;;;;;;14.53;8.20;;;6.20;99.90;;;;;;5013849;28;20202;-61
2023/01/04 06:19:37;;;;;;;15.83;8.30;;;6.10;99.90;;;;;;5007641;28;20206;-60
2023/01/04 06:22:04;;;;;;;15.23;7.80;;;6.00;99.90;;;;;;5010487;28;20210;-60
2023/01/04 06:24:32;;;;;;;19.50;7.67;;;6.00;99.90;;;;;;5009712;28;20201;-60
2023/01/04 06:27:00;;;;;;;15.77;8.23;;;6.00;99.90;;;;;;5031764;28;20643;-60
2023/01/04 06:29:27;;;;;;;11.83;6.77;;;6.00;99.90;;;;;;5029744;28;20199;-62
2023/01/04 06:31:54;;;;;;;11.77;6.73;;;6.00;99.90;;;;;;5012979;28;20201;-60
2023/01/04 06:34:23;;;;;;;15.83;6.57;;;6.10;99.90;;;;;;5010618;28;20676;-60
2023/01/04 06:36:50;;;;;;;12.90;6.70;;;6.10;99.90;;;;;;5018304;28;20197;-60
2023/01/04 06:39:17;;;;;;;13.90;6.73;;;6.10;99.90;;;;;;5012333;28;20207;-60
2023/01/04 06:41:44;;;;;;;13.70;6.93;;;6.10;99.90;;;;;;4998109;28;20203;-61
2023/01/04 06:44:11;;;;;;;13.93;6.77;;;6.10;99.90;;;;;;5009927;28;20307;-62
2023/01/04 06:46:39;;;;;;;16.03;6.50;;;6.00;99.90;;;;;;5013057;28;20205;-61
2023/01/04 06:49:07;;;;;;;9.77;6.20;;;5.90;99.90;;;;;;5001566;28;20206;-62
2023/01/04 06:51:35;;;;;;;13.77;5.63;;;5.90;99.90;;;;;;5031394;28;20563;-62
2023/01/04 06:54:02;;;;;;;10.47;5.37;;;5.90;99.90;;;;;;5010872;28;20197;-62
2023/01/04 06:56:31;;;;;;;9.93;5.23;;;5.90;99.90;;;;;;5011002;28;20222;-61
2023/01/04 06:58:58;;;;;;;8.23;4.83;;;6.00;99.90;;;;;;5009845;28;20318;-60
2023/01/04 07:01:26;;;;;;;16.97;6.77;;;6.00;99.90;;;;;;5022106;28;20198;-61
2023/01/04 07:03:53;;;;;;;18.53;7.13;;;6.20;99.90;;;;;;5005957;28;20297;-61
2023/01/04 07:06:20;;;;;;;23.83;8.27;;;6.00;99.90;;;;;;5020293;28;20191;-62
2023/01/04 07:08:49;;;;;;;18.33;6.50;;;6.00;99.90;;;;;;5008641;28;20601;-61
2023/01/04 07:11:16;;;;;;;16.27;6.13;;;6.50;99.90;;;;;;5005603;28;20603;-61
2023/01/04 07:13:43;;;;;;;16.33;5.47;;;5.90;99.90;;;;;;5011575;28;20198;-61
2023/01/04 07:16:10;;;;;;;17.10;5.37;;;5.80;99.90;;;;;;5010042;28;20223;-61
2023/01/04 07:18:37;;;;;;;16.23;5.50;;;5.80;99.90;;;;;;5021788;28;20195;-62
2023/01/04 07:21:05;;;;;;;13.63;5.80;;;5.80;99.90;;;;;;5008341;28;20213;-60
2023/01/04 07:23:32;;;;;;;12.43;5.63;;;5.70;99.90;;;;;;5002320;28;20304;-61
2023/01/04 07:26:02;;;;;;;10.03;5.40;;;5.90;99.90;;;;;;5005245;28;20200;-60
2023/01/04 07:31:13;;;;;;;7.00;3.90;;;5.80;99.90;;;;;;4961606;28;20192;-61
2023/01/04 07:33:40;;;;;;;9.57;4.47;;;5.80;99.90;;;;;;5010505;28;20204;-62
2023/01/04 07:36:08;;;;;;;8.63;4.03;;;5.90;99.90;;;;;;5015198;28;20225;-61
2023/01/04 07:38:36;;;;;;;7.13;3.73;;;5.90;99.90;;;;;;5004464;28;20356;-60
2023/01/04 07:41:04;;;;;;;6.17;3.30;;;6.00;99.90;;;;;;5012604;28;20205;-61
2023/01/04 07:43:32;;;;;;;6.63;3.47;;;6.10;99.90;;;;;;5016507;28;20208;-62
2023/01/04 07:45:59;;;;;;;7.43;4.30;;;6.10;99.90;;;;;;5013950;28;20255;-61
2023/01/04 07:48:28;;;;;;;12.33;4.83;;;6.20;99.90;;;;;;5016160;28;20247;-61
2023/01/04 07:50:55;;;;;;;12.13;5.70;;;6.20;99.90;;;;;;5017904;28;20196;-61
2023/01/04 07:53:22;;;;;;;10.80;5.07;;;6.20;99.90;;;;;;5014728;28;20657;-61
2023/01/04 07:55:55;;;;;;;11.57;5.37;;;6.10;99.90;;;;;;5010201;28;20209;-60
2023/01/04 07:58:24;;;;;;;13.30;6.47;;;6.10;99.90;;;;;;5017208;28;20189;-61
2023/01/04 08:00:51;;;;;;;14.07;6.43;;;6.10;99.90;;;;;;5005163;28;20668;-61
2023/01/04 08:03:18;;;;;;;14.97;6.40;;;6.10;99.90;;;;;;5001068;28;20322;-61
2023/01/04 08:05:47;;;;;;;15.93;6.83;;;6.10;99.90;;;;;;5015749;28;20223;-61
2023/01/04 08:08:14;;;;;;;16.23;6.43;;;6.00;99.90;;;;;;5016416;28;20501;-60
2023/01/04 08:10:41;;;;;;;14.50;6.37;;;6.00;99.90;;;;;;5003927;28;20203;-61
2023/01/04 08:13:08;;;;;;;12.97;5.97;;;6.00;99.90;;;;;;5004907;28;20747;-61
2023/01/04 08:15:37;;;;;;;11.07;5.80;;;6.00;99.90;;;;;;5002998;28;20203;-61
2023/01/04 08:18:04;;;;;;;13.37;6.10;;;6.10;99.90;;;;;;5001728;28;20194;-61
2023/01/04 08:20:31;;;;;;;15.00;5.97;;;6.10;99.90;;;;;;5010729;28;20199;-61
2023/01/04 08:22:58;;;;;;;15.47;5.00;;;6.10;99.90;;;;;;5010873;28;20205;-62
2023/01/04 08:25:25;;;;;;;20.83;7.30;;;6.10;99.90;;;;;;4995133;28;20663;-61
2023/01/04 08:27:52;;;;;;;16.40;6.60;;;6.00;99.90;;;;;;5006719;28;20208;-61
2023/01/04 08:30:19;;;;;;;15.17;6.10;;;6.00;99.90;;;;;;5020245;28;20194;-61
2023/01/04 08:32:49;;;;;;;15.40;6.50;;;5.90;99.90;;;;;;5018689;28;20248;-60
2023/01/04 08:35:16;;;;;;;15.20;6.60;;;5.90;99.90;;;;;;5006556;28;20762;-60
2023/01/04 08:37:43;;;;;;;16.30;6.40;;;5.90;99.90;;;;;;5017750;28;20661;-61
2023/01/04 08:40:11;;;;;;;15.23;6.67;;;5.80;99.90;;;;;;5011136;28;20194;-61
2023/01/04 08:42:38;;;;;;;13.97;6.43;;;5.80;99.90;;;;;;5004952;28;20192;-61
2023/01/04 08:45:07;;;;;;;17.03;6.57;;;5.80;99.90;;;;;;5019088;28;20204;-62
2023/01/04 08:47:34;;;;;;;12.80;6.77;;;5.80;99.90;;;;;;5009667;28;20196;-61
2023/01/04 08:50:03;;;;;;;12.50;6.50;;;5.80;99.90;;;;;;5006496;28;20207;-61
2023/01/04 08:52:30;;;;;;;16.03;6.73;;;5.80;99.90;;;;;;5016079;28;20194;-61
2023/01/04 08:54:57;;;;;;;11.57;6.03;;;5.80;99.90;;;;;;5010352;28;20266;-60
2023/01/04 08:57:25;;;;;;;16.17;6.77;;;5.90;99.90;;;;;;5005364;28;20193;-61
2023/01/04 08:59:52;;;;;;;14.93;7.33;;;5.90;99.90;;;;;;5016168;28;20213;-61
2023/01/04 09:02:22;;;;;;;13.47;7.40;;;6.00;99.90;;;;;;5033892;28;20196;-61
2023/01/04 09:04:49;;;;;;;17.83;7.97;;;6.00;99.90;;;;;;5003910;28;20227;-60
2023/01/04 09:07:18;;;;;;;15.50;7.80;;;5.90;99.90;;;;;;5014340;28;20598;-62
2023/01/04 09:09:45;;;;;;;18.47;8.93;;;5.90;99.90;;;;;;5004633;28;20188;-61
2023/01/04 09:12:12;;;;;;;20.83;9.43;;;5.90;99.90;;;;;;5003543;28;20248;-61
2023/01/04 09:14:39;;;;;;;24.50;10.97;;;5.90;99.90;;;;;;5009513;28;20212;-61
2023/01/04 09:17:06;;;;;;;28.30;11.13;;;5.90;99.90;;;;;;5010677;28;20220;-61
2023/01/04 09:19:34;;;;;;;25.33;10.00;;;5.90;99.90;;;;;;5012385;28;20196;-61
2023/01/04 09:22:01;;;;;;;27.80;9.63;;;5.80;99.90;;;;;;5005400;28;20641;-62
2023/01/04 09:24:33;;;;;;;18.10;9.10;;;5.80;99.90;;;;;;5014478;28;20278;-61
2023/01/04 09:27:01;;;;;;;18.37;8.13;;;5.70;99.90;;;;;;5010235;28;20644;-61
2023/01/04 09:29:28;;;;;;;24.17;8.80;;;5.70;99.90;;;;;;5007108;28;20306;-61
2023/01/04 09:31:55;;;;;;;18.03;8.83;;;5.70;99.90;;;;;;5005193;28;20201;-62
2023/01/04 09:34:22;;;;;;;16.70;8.20;;;5.70;99.90;;;;;;4995245;28;20204;-62
2023/01/04 09:36:50;;;;;;;18.47;8.30;;;5.70;99.90;;;;;;5003760;28;20273;-62
2023/01/04 09:39:17;;;;;;;16.03;8.40;;;5.70;99.90;;;;;;5014750;28;20292;-61
2023/01/04 09:41:53;;;;;;;20.17;10.07;;;5.70;99.90;;;;;;5019116;28;20304;-61
2023/01/04 09:44:36;;;;;;;23.97;9.67;;;5.70;99.90;;;;;;5011539;28;20677;-61
2023/01/04 09:47:07;;;;;;;17.33;9.00;;;5.70;99.90;;;;;;5015889;28;20667;-62
2023/01/04 09:49:41;;;;;;;17.70;8.53;;;5.70;99.90;;;;;;5014621;28;20195;-62
2023/01/04 09:52:16;;;;;;;23.07;10.60;;;5.70;99.90;;;;;;5015492;28;20522;-60
2023/01/04 09:54:47;;;;;;;27.03;10.73;;;5.70;99.90;;;;;;5013381;28;20270;-62
2023/01/04 09:57:23;;;;;;;17.87;8.93;;;5.80;99.90;;;;;;5015122;28;20241;-62
2023/01/04 09:59:54;;;;;;;21.33;9.97;;;5.70;99.90;;;;;;5017188;28;20196;-63
2023/01/04 10:02:29;;;;;;;18.10;9.43;;;5.90;99.90;;;;;;5015572;28;20197;-61
2023/01/04 10:05:00;;;;;;;20.50;9.73;;;5.70;99.90;;;;;;5010492;28;20237;-61
2023/01/04 10:07:29;;;;;;;18.27;9.40;;;5.70;99.90;;;;;;5018351;28;20628;-62
2023/01/04 10:09:58;;;;;;;20.50;10.07;;;5.70;99.90;;;;;;5017198;28;20207;-62
2023/01/04 10:12:37;;;;;;;19.17;9.40;;;5.70;99.90;;;;;;5005962;28;20201;-62
2023/01/04 10:15:21;;;;;;;18.87;9.50;;;5.70;99.90;;;;;;5011519;28;20211;-61
2023/01/04 10:18:02;;;;;;;16.83;9.00;;;5.70;99.90;;;;;;5010438;28;20196;-62
2023/01/04 10:21:07;;;;;;;19.27;9.20;;;5.70;99.90;;;;;;5016141;28;20220;-62
2023/01/04 10:23:46;;;;;;;25.23;10.30;;;5.70;99.90;;;;;;5017900;28;20203;-62
2023/01/04 10:26:14;;;;;;;20.27;9.83;;;5.50;99.90;;;;;;5021067;28;20686;-63
2023/01/04 10:28:58;;;;;;;20.70;11.17;;;5.70;99.90;;;;;;5018674;28;20668;-62
2023/01/04 10:31:31;;;;;;;20.73;10.20;;;5.70;99.90;;;;;;5008553;28;20192;-62
2023/01/04 10:34:06;;;;;;;23.43;11.70;;;5.70;99.90;;;;;;5006807;28;20528;-62
2023/01/04 10:36:33;;;;;;;19.97;10.73;;;5.70;99.90;;;;;;5017595;28;20214;-62
2023/01/04 10:39:02;;;;;;;22.43;11.47;;;5.70;99.90;;;;;;5006920;28;20536;-61
2023/01/04 10:41:35;;;;;;;22.07;10.57;;;5.70;99.90;;;;;;5006775;28;20626;-61
2023/01/04 10:44:11;;;;;;;21.97;11.87;;;5.70;99.90;;;;;;5015111;28;20614;-61
2023/01/04 10:46:47;;;;;;;24.17;10.90;;;5.80;99.90;;;;;;5006786;28;20665;-61
2023/01/04 10:49:20;;;;;;;26.53;12.13;;;5.80;99.90;;;;;;5005871;28;20211;-62
2023/01/04 10:51:53;;;;;;;20.17;11.07;;;5.80;99.90;;;;;;5005299;28;20208;-62
2023/01/04 10:54:27;;;;;;;22.47;11.40;;;5.90;99.90;;;;;;5015604;28;20327;-61
2023/01/04 10:57:01;;;;;;;20.63;10.83;;;5.90;99.90;;;;;;5017736;28;20623;-62
2023/01/04 10:59:37;;;;;;;21.00;11.33;;;6.00;99.90;;;;;;5015402;28;20200;-62
2023/01/04 11:02:16;;;;;;;19.87;11.70;;;5.90;99.90;;;;;;5017619;28;20220;-61
2023/01/04 11:04:51;;;;;;;21.53;11.43;;;6.00;99.90;;;;;;5014046;28;20717;-62
2023/01/04 11:07:25;;;;;;;19.90;10.70;;;6.00;99.90;;;;;;5011263;28;20180;-62
2023/01/04 11:09:55;;;;;;;22.67;12.13;;;6.00;99.90;;;;;;5007922;28;20213;-60
2023/01/04 11:12:23;;;;;;;30.13;12.60;;;6.10;99.90;;;;;;5008810;28;20232;-61
2023/01/04 11:14:52;;;;;;;27.03;12.17;;;6.10;99.90;;;;;;5013520;28;20201;-62
2023/01/04 11:17:21;;;;;;;22.37;11.63;;;6.10;99.90;;;;;;5008389;28;20215;-62
2023/01/04 11:19:48;;;;;;;21.40;11.67;;;6.10;99.90;;;;;;5008604;28;20200;-61
2023/01/04 11:22:20;;;;;;;25.17;13.80;;;6.10;99.90;;;;;;5007242;28;20201;-62
2023/01/04 11:24:50;;;;;;;23.00;12.53;;;6.20;99.90;;;;;;5009014;28;20226;-61
2023/01/04 11:27:22;;;;;;;23.13;11.87;;;6.20;99.90;;;;;;5006517;28;20194;-61
2023/01/04 11:29:56;;;;;;;22.03;12.03;;;6.20;99.90;;;;;;5007682;28;20205;-61
2023/01/04 11:32:32;;;;;;;23.10;12.20;;;6.20;99.90;;;;;;5006550;28;20278;-61
2023/01/04 11:34:59;;;;;;;23.97;13.53;;;6.30;99.90;;;;;;5009231;28;20729;-61
2023/01/04 11:37:29;;;;;;;26.93;13.70;;;6.20;99.90;;;;;;5009565;28;20204;-60
2023/01/04 11:40:23;;;;;;;29.10;14.90;;;6.20;99.90;;;;;;5008383;28;20232;-61
2023/01/04 11:42:52;;;;;;;29.17;15.30;;;6.20;99.90;;;;;;5005937;28;20190;-61
2023/01/04 11:45:26;;;;;;;26.40;13.83;;;6.20;99.90;;;;;;5007517;28;20633;-61
2023/01/04 11:47:54;;;;;;;26.67;13.57;;;6.20;99.90;;;;;;5006905;28;20723;-61
2023/01/04 11:50:36;;;;;;;25.93;13.17;;;6.30;99.90;;;;;;5010897;28;20560;-61
2023/01/04 11:53:26;;;;;;;25.90;12.10;;;6.30;99.90;;;;;;5008266;28;20196;-62
2023/01/04 11:56:09;;;;;;;27.83;13.80;;;6.20;99.90;;;;;;5009591;28;20198;-60
2023/01/04 11:58:37;;;;;;;25.83;13.23;;;6.30;99.90;;;;;;5008223;28;20197;-61
2023/01/04 12:01:10;;;;;;;27.13;14.13;;;6.30;99.90;;;;;;5009067;28;20221;-61
2023/01/04 12:03:39;;;;;;;33.00;15.70;;;6.20;99.90;;;;;;5007560;28;20721;-61
2023/01/04 12:06:12;;;;;;;34.77;14.60;;;6.20;99.90;;;;;;5006630;28;20204;-61
2023/01/04 12:08:40;;;;;;;29.53;14.30;;;6.20;99.90;;;;;;5007273;28;20661;-60
2023/01/04 12:11:26;;;;;;;28.30;14.67;;;6.20;99.90;;;;;;5008161;28;20585;-61
2023/01/04 12:13:53;;;;;;;53.20;24.33;;;6.20;99.90;;;;;;5006715;28;20196;-60
2023/01/04 12:16:34;;;;;;;31.80;16.07;;;6.20;99.90;;;;;;5015440;28;20208;-62
2023/01/04 12:19:01;;;;;;;33.37;15.77;;;6.20;99.90;;;;;;5005397;28;20695;-61
2023/01/04 12:21:28;;;;;;;31.03;14.70;;;6.20;99.90;;;;;;5008015;28;20208;-61
2023/01/04 12:23:56;;;;;;;30.23;15.17;;;6.20;99.90;;;;;;5003970;28;20227;-61
2023/01/04 12:26:23;;;;;;;28.87;13.93;;;6.20;99.90;;;;;;5007904;28;20204;-60
2023/01/04 12:28:57;;;;;;;26.43;13.00;;;6.20;99.90;;;;;;5005918;28;20200;-61
2023/01/04 12:31:33;;;;;;;26.40;13.50;;;6.20;99.90;;;;;;5007445;28;20269;-61
2023/01/04 12:34:40;;;;;;;29.97;14.23;;;6.20;99.90;;;;;;5009779;28;20212;-60
2023/01/04 12:37:08;;;;;;;28.13;13.30;;;6.30;99.90;;;;;;5009891;28;20539;-61
2023/01/04 12:39:43;;;;;;;26.50;14.10;;;6.30;99.90;;;;;;5006809;28;20235;-61
2023/01/04 12:42:18;;;;;;;27.27;13.40;;;6.40;99.90;;;;;;5007351;28;20232;-61
2023/01/04 12:45:22;;;;;;;28.37;14.50;;;6.40;99.90;;;;;;5005102;28;20267;-61
2023/01/04 12:51:20;;;;;;;27.70;14.57;;;6.40;99.90;;;;;;5006011;28;20656;-60
2023/01/04 12:53:52;;;;;;;30.40;14.43;;;6.40;99.90;;;;;;5005043;28;20286;-62
2023/01/04 12:56:19;;;;;;;25.07;13.53;;;6.40;99.90;;;;;;5007525;28;20201;-61
2023/01/04 12:59:09;;;;;;;26.70;14.40;;;6.40;99.90;;;;;;5005489;28;20193;-60
2023/01/04 13:01:37;;;;;;;29.30;13.87;;;6.40;99.90;;;;;;5006755;28;20708;-61
2023/01/04 13:07:10;;;;;;;27.07;14.23;;;7.10;99.90;;;;;;5080208;27;21024;-61
2023/01/04 13:09:49;;;;;;;29.37;15.40;;;6.40;99.90;;;;;;5081967;28;20190;-61
2023/01/04 13:12:43;;;;;;;27.17;14.43;;;6.40;99.90;;;;;;5082599;28;20653;-61
2023/01/04 13:15:19;;;;;;;26.80;14.17;;;6.40;99.90;;;;;;5079981;28;20285;-60
2023/01/04 13:17:47;;;;;;;24.53;13.73;;;6.40;99.90;;;;;;5081583;28;20206;-61
2023/01/04 13:20:17;;;;;;;27.10;13.50;;;6.40;99.90;;;;;;5081722;28;20610;-62
2023/01/04 13:22:51;;;;;;;27.77;14.20;;;6.40;99.90;;;;;;5079216;28;20203;-61
2023/01/04 13:25:21;;;;;;;27.77;12.70;;;6.50;99.90;;;;;;5081611;28;20204;-60
2023/01/04 13:27:58;;;;;;;24.07;12.87;;;6.50;99.90;;;;;;5081694;28;20678;-61
2023/01/04 13:30:34;;;;;;;20.60;11.20;;;6.60;99.90;;;;;;5078319;28;20692;-61
2023/01/04 13:33:09;;;;;;;21.77;11.80;;;6.70;99.90;;;;;;5076858;28;20211;-61
2023/01/04 13:35:37;;;;;;;18.70;10.77;;;6.70;99.90;;;;;;5077389;28;20203;-60
2023/01/04 13:38:13;;;;;;;22.57;11.10;;;6.80;99.90;;;;;;5083052;28;20201;-61
2023/01/04 13:40:44;;;;;;;27.10;14.00;;;6.80;99.90;;;;;;5081245;28;20189;-60
2023/01/04 13:43:41;;;;;;;22.80;12.13;;;6.90;99.90;;;;;;5082746;28;20299;-61
2023/01/04 13:46:15;;;;;;;22.10;11.40;;;6.90;99.90;;;;;;5081296;28;20303;-61
2023/01/04 13:48:46;;;;;;;23.30;11.50;;;6.90;99.90;;;;;;5079413;28;20688;-61
2023/01/04 13:51:16;;;;;;;18.50;10.70;;;6.90;99.90;;;;;;5081275;28;20539;-62
2023/01/04 13:53:54;;;;;;;15.50;9.57;;;6.90;99.90;;;;;;5081123;28;20531;-62
2023/01/04 13:56:25;;;;;;;18.00;9.70;;;6.90;99.90;;;;;;5079179;28;20568;-62
2023/01/04 13:58:53;;;;;;;20.33;10.87;;;6.90;99.90;;;;;;5080220;28;20201;-62
2023/01/04 14:01:24;;;;;;;21.17;11.10;;;6.90;99.90;;;;;;5081849;28;20188;-61
2023/01/04 14:03:55;;;;;;;18.87;10.53;;;7.00;99.90;;;;;;5081152;28;20644;-62
2023/01/04 14:06:26;;;;;;;19.90;10.73;;;7.00;99.90;;;;;;5082297;28;20229;-61
2023/01/04 14:09:07;;;;;;;18.50;9.43;;;7.00;99.90;;;;;;5078058;28;20584;-61
2023/01/04 14:12:00;;;;;;;19.17;10.67;;;7.00;99.90;;;;;;5081117;28;20675;-62